sensor_id;sensor_type;location;lat;lon;timestamp;P1;durP1;ratioP1;P2;durP2;ratioP2
5616;SDS011;2830;50.656;7.568;2023-07-20T00:01:51;4.13;;;2.40;;
5616;SDS011;2830;50.656;7.568;2023-07-20T00:04:18;3.90;;;2.70;;
5616;SDS011;2830;50.656;7.568;2023-07-20T00:06:44;5.77;;;2.40;;
5616;SDS011;2830;50.656;7.568;2023-07-20T00:09:11;4.10;;;2.20;;
5616;SDS011;2830;50.656;7.568;2023-07-20T00:11:38;6.37;;;2.60;;
5616;SDS011;2830;50.656;7.568;2023-07-20T00:14:06;6.57;;;2.73;;
5616;SDS011;2830;50.656;7.568;2023-07-20T00:16:32;11.77;;;2.60;;
5616;SDS011;2830;50.656;7.568;2023-07-20T00:18:59;8.20;;;3.40;;
5616;SDS011;2830;50.656;7.568;2023-07-20T00:21:26;7.23;;;2.53;;
5616;SDS011;2830;50.656;7.568;2023-07-20T00:23:53;4.23;;;2.37;;
5616;SDS011;2830;50.656;7.568;2023-07-20T00:26:19;7.40;;;2.60;;
5616;SDS011;2830;50.656;7.568;2023-07-20T00:28:48;7.87;;;2.93;;
5616;SDS011;2830;50.656;7.568;2023-07-20T00:31:16;7.00;;;3.20;;
5616;SDS011;2830;50.656;7.568;2023-07-20T00:33:42;9.00;;;3.17;;
5616;SDS011;2830;50.656;7.568;2023-07-20T00:36:09;9.43;;;2.87;;
5616;SDS011;2830;50.656;7.568;2023-07-20T00:38:36;5.40;;;2.50;;
5616;SDS011;2830;50.656;7.568;2023-07-20T00:41:03;7.23;;;3.13;;
5616;SDS011;2830;50.656;7.568;2023-07-20T00:43:29;5.77;;;2.47;;
5616;SDS011;2830;50.656;7.568;2023-07-20T00:45:56;6.27;;;3.10;;
5616;SDS011;2830;50.656;7.568;2023-07-20T00:48:23;5.00;;;2.70;;
5616;SDS011;2830;50.656;7.568;2023-07-20T00:50:50;6.27;;;2.27;;
5616;SDS011;2830;50.656;7.568;2023-07-20T00:53:17;5.13;;;2.73;;
5616;SDS011;2830;50.656;7.568;2023-07-20T00:55:44;5.40;;;2.80;;
5616;SDS011;2830;50.656;7.568;2023-07-20T00:58:11;5.53;;;2.60;;
5616;SDS011;2830;50.656;7.568;2023-07-20T01:00:38;5.47;;;2.93;;
5616;SDS011;2830;50.656;7.568;2023-07-20T01:03:05;5.83;;;2.73;;
5616;SDS011;2830;50.656;7.568;2023-07-20T01:05:38;4.70;;;3.23;;
5616;SDS011;2830;50.656;7.568;2023-07-20T01:08:43;10.03;;;3.27;;
5616;SDS011;2830;50.656;7.568;2023-07-20T01:11:23;6.10;;;3.30;;
5616;SDS011;2830;50.656;7.568;2023-07-20T01:13:51;4.60;;;2.80;;
5616;SDS011;2830;50.656;7.568;2023-07-20T01:16:18;6.53;;;3.67;;
5616;SDS011;2830;50.656;7.568;2023-07-20T01:18:45;6.00;;;4.07;;
5616;SDS011;2830;50.656;7.568;2023-07-20T01:21:18;6.57;;;4.50;;
5616;SDS011;2830;50.656;7.568;2023-07-20T01:24:00;9.53;;;5.20;;
5616;SDS011;2830;50.656;7.568;2023-07-20T01:29:54;8.50;;;4.17;;
5616;SDS011;2830;50.656;7.568;2023-07-20T01:32:40;7.53;;;4.17;;
5616;SDS011;2830;50.656;7.568;2023-07-20T01:35:10;6.13;;;4.23;;
5616;SDS011;2830;50.656;7.568;2023-07-20T01:37:41;6.87;;;4.40;;
5616;SDS011;2830;50.656;7.568;2023-07-20T01:40:10;7.20;;;3.87;;
5616;SDS011;2830;50.656;7.568;2023-07-20T01:42:42;6.10;;;3.53;;
5616;SDS011;2830;50.656;7.568;2023-07-20T01:45:11;5.23;;;3.67;;
5616;SDS011;2830;50.656;7.568;2023-07-20T01:47:38;8.57;;;4.70;;
5616;SDS011;2830;50.656;7.568;2023-07-20T01:50:05;7.13;;;4.30;;
5616;SDS011;2830;50.656;7.568;2023-07-20T01:52:32;10.50;;;4.30;;
5616;SDS011;2830;50.656;7.568;2023-07-20T01:54:59;8.03;;;4.03;;
5616;SDS011;2830;50.656;7.568;2023-07-20T01:57:26;6.60;;;4.33;;
5616;SDS011;2830;50.656;7.568;2023-07-20T01:59:52;7.10;;;4.00;;
5616;SDS011;2830;50.656;7.568;2023-07-20T02:02:19;7.13;;;4.00;;
5616;SDS011;2830;50.656;7.568;2023-07-20T02:04:46;7.03;;;3.83;;
5616;SDS011;2830;50.656;7.568;2023-07-20T02:07:13;7.90;;;4.37;;
5616;SDS011;2830;50.656;7.568;2023-07-20T02:09:40;5.90;;;3.30;;
5616;SDS011;2830;50.656;7.568;2023-07-20T02:12:07;8.87;;;4.40;;
5616;SDS011;2830;50.656;7.568;2023-07-20T02:14:34;6.90;;;4.63;;
5616;SDS011;2830;50.656;7.568;2023-07-20T02:17:01;8.20;;;4.80;;
5616;SDS011;2830;50.656;7.568;2023-07-20T02:19:28;6.63;;;4.80;;
5616;SDS011;2830;50.656;7.568;2023-07-20T02:21:56;7.63;;;4.03;;
5616;SDS011;2830;50.656;7.568;2023-07-20T02:24:23;8.77;;;4.10;;
5616;SDS011;2830;50.656;7.568;2023-07-20T02:26:51;5.93;;;4.63;;
5616;SDS011;2830;50.656;7.568;2023-07-20T02:29:18;7.33;;;4.57;;
5616;SDS011;2830;50.656;7.568;2023-07-20T02:31:44;5.30;;;4.03;;
5616;SDS011;2830;50.656;7.568;2023-07-20T02:34:11;6.87;;;4.43;;
5616;SDS011;2830;50.656;7.568;2023-07-20T02:36:38;7.83;;;4.23;;
5616;SDS011;2830;50.656;7.568;2023-07-20T02:39:04;10.60;;;5.07;;
5616;SDS011;2830;50.656;7.568;2023-07-20T02:41:33;7.03;;;4.83;;
5616;SDS011;2830;50.656;7.568;2023-07-20T02:44:00;9.03;;;4.93;;
5616;SDS011;2830;50.656;7.568;2023-07-20T02:46:28;9.77;;;4.37;;
5616;SDS011;2830;50.656;7.568;2023-07-20T02:48:56;7.37;;;4.27;;
5616;SDS011;2830;50.656;7.568;2023-07-20T02:51:23;6.50;;;3.70;;
5616;SDS011;2830;50.656;7.568;2023-07-20T02:53:49;8.90;;;4.67;;
5616;SDS011;2830;50.656;7.568;2023-07-20T02:56:16;5.30;;;3.90;;
5616;SDS011;2830;50.656;7.568;2023-07-20T02:58:44;9.70;;;5.90;;
5616;SDS011;2830;50.656;7.568;2023-07-20T03:01:12;6.73;;;4.30;;
5616;SDS011;2830;50.656;7.568;2023-07-20T03:03:41;7.93;;;4.20;;
5616;SDS011;2830;50.656;7.568;2023-07-20T03:06:13;8.80;;;4.30;;
5616;SDS011;2830;50.656;7.568;2023-07-20T03:08:41;9.53;;;4.30;;
5616;SDS011;2830;50.656;7.568;2023-07-20T03:11:11;5.70;;;4.50;;
5616;SDS011;2830;50.656;7.568;2023-07-20T03:13:38;5.90;;;3.97;;
5616;SDS011;2830;50.656;7.568;2023-07-20T03:16:05;5.70;;;4.27;;
5616;SDS011;2830;50.656;7.568;2023-07-20T03:18:31;8.60;;;5.80;;
5616;SDS011;2830;50.656;7.568;2023-07-20T03:20:58;7.07;;;4.50;;
5616;SDS011;2830;50.656;7.568;2023-07-20T03:23:25;7.00;;;4.13;;
5616;SDS011;2830;50.656;7.568;2023-07-20T03:25:52;8.33;;;4.27;;
5616;SDS011;2830;50.656;7.568;2023-07-20T03:28:21;6.10;;;3.87;;
5616;SDS011;2830;50.656;7.568;2023-07-20T03:30:54;5.73;;;4.23;;
5616;SDS011;2830;50.656;7.568;2023-07-20T03:33:26;7.70;;;4.23;;
5616;SDS011;2830;50.656;7.568;2023-07-20T03:35:54;5.93;;;3.80;;
5616;SDS011;2830;50.656;7.568;2023-07-20T03:38:21;7.53;;;4.33;;
5616;SDS011;2830;50.656;7.568;2023-07-20T03:40:50;8.70;;;4.20;;
5616;SDS011;2830;50.656;7.568;2023-07-20T03:43:17;6.10;;;4.20;;
5616;SDS011;2830;50.656;7.568;2023-07-20T03:45:44;8.43;;;4.43;;
5616;SDS011;2830;50.656;7.568;2023-07-20T03:48:18;5.37;;;4.10;;
5616;SDS011;2830;50.656;7.568;2023-07-20T03:50:48;7.90;;;4.13;;
5616;SDS011;2830;50.656;7.568;2023-07-20T03:53:16;7.30;;;4.10;;
5616;SDS011;2830;50.656;7.568;2023-07-20T03:55:47;5.23;;;4.13;;
5616;SDS011;2830;50.656;7.568;2023-07-20T03:58:15;7.00;;;4.13;;
5616;SDS011;2830;50.656;7.568;2023-07-20T04:00:45;8.33;;;4.33;;
5616;SDS011;2830;50.656;7.568;2023-07-20T04:03:13;7.23;;;4.37;;
5616;SDS011;2830;50.656;7.568;2023-07-20T04:05:41;7.80;;;4.33;;
5616;SDS011;2830;50.656;7.568;2023-07-20T04:08:09;6.70;;;4.40;;
5616;SDS011;2830;50.656;7.568;2023-07-20T04:10:38;6.17;;;4.27;;
5616;SDS011;2830;50.656;7.568;2023-07-20T04:13:05;5.57;;;3.50;;
5616;SDS011;2830;50.656;7.568;2023-07-20T04:15:33;5.90;;;4.27;;
5616;SDS011;2830;50.656;7.568;2023-07-20T04:18:00;14.33;;;4.27;;
5616;SDS011;2830;50.656;7.568;2023-07-20T04:20:27;8.83;;;4.53;;
5616;SDS011;2830;50.656;7.568;2023-07-20T04:22:55;7.67;;;5.30;;
5616;SDS011;2830;50.656;7.568;2023-07-20T04:25:22;5.60;;;3.90;;
5616;SDS011;2830;50.656;7.568;2023-07-20T04:27:50;7.93;;;4.40;;
5616;SDS011;2830;50.656;7.568;2023-07-20T04:30:18;7.93;;;4.67;;
5616;SDS011;2830;50.656;7.568;2023-07-20T04:32:49;9.43;;;4.50;;
5616;SDS011;2830;50.656;7.568;2023-07-20T04:38:12;6.03;;;4.87;;
5616;SDS011;2830;50.656;7.568;2023-07-20T04:40:39;7.10;;;4.53;;
5616;SDS011;2830;50.656;7.568;2023-07-20T04:43:09;11.73;;;4.03;;
5616;SDS011;2830;50.656;7.568;2023-07-20T04:45:36;7.83;;;4.93;;
5616;SDS011;2830;50.656;7.568;2023-07-20T04:48:03;7.47;;;4.93;;
5616;SDS011;2830;50.656;7.568;2023-07-20T04:50:35;6.80;;;4.27;;
5616;SDS011;2830;50.656;7.568;2023-07-20T04:53:02;5.33;;;3.60;;
5616;SDS011;2830;50.656;7.568;2023-07-20T04:55:29;7.87;;;4.30;;
5616;SDS011;2830;50.656;7.568;2023-07-20T04:58:03;6.27;;;3.37;;
5616;SDS011;2830;50.656;7.568;2023-07-20T05:00:30;8.90;;;4.97;;
5616;SDS011;2830;50.656;7.568;2023-07-20T05:02:57;9.80;;;4.60;;
5616;SDS011;2830;50.656;7.568;2023-07-20T05:05:24;7.07;;;4.83;;
5616;SDS011;2830;50.656;7.568;2023-07-20T05:07:51;8.60;;;5.03;;
5616;SDS011;2830;50.656;7.568;2023-07-20T05:10:21;5.83;;;4.27;;
5616;SDS011;2830;50.656;7.568;2023-07-20T05:12:48;7.93;;;4.43;;
5616;SDS011;2830;50.656;7.568;2023-07-20T05:15:15;5.97;;;3.83;;
5616;SDS011;2830;50.656;7.568;2023-07-20T05:17:42;10.60;;;4.93;;
5616;SDS011;2830;50.656;7.568;2023-07-20T05:20:09;5.50;;;3.53;;
5616;SDS011;2830;50.656;7.568;2023-07-20T05:22:36;8.57;;;3.87;;
5616;SDS011;2830;50.656;7.568;2023-07-20T05:25:10;5.53;;;3.90;;
5616;SDS011;2830;50.656;7.568;2023-07-20T05:27:37;7.03;;;4.00;;
5616;SDS011;2830;50.656;7.568;2023-07-20T05:30:05;10.63;;;4.00;;
5616;SDS011;2830;50.656;7.568;2023-07-20T05:32:35;5.27;;;3.80;;
5616;SDS011;2830;50.656;7.568;2023-07-20T05:35:03;7.23;;;3.90;;
5616;SDS011;2830;50.656;7.568;2023-07-20T05:37:30;4.27;;;3.20;;
5616;SDS011;2830;50.656;7.568;2023-07-20T05:39:57;5.50;;;4.20;;
5616;SDS011;2830;50.656;7.568;2023-07-20T05:42:24;7.60;;;3.93;;
5616;SDS011;2830;50.656;7.568;2023-07-20T05:44:50;9.73;;;5.10;;
5616;SDS011;2830;50.656;7.568;2023-07-20T05:47:19;5.60;;;3.40;;
5616;SDS011;2830;50.656;7.568;2023-07-20T05:49:46;4.87;;;3.27;;
5616;SDS011;2830;50.656;7.568;2023-07-20T05:52:13;9.23;;;3.50;;
5616;SDS011;2830;50.656;7.568;2023-07-20T05:54:40;4.97;;;3.10;;
5616;SDS011;2830;50.656;7.568;2023-07-20T05:57:07;10.90;;;4.30;;
5616;SDS011;2830;50.656;7.568;2023-07-20T05:59:34;5.80;;;3.70;;
5616;SDS011;2830;50.656;7.568;2023-07-20T06:02:01;6.33;;;4.00;;
5616;SDS011;2830;50.656;7.568;2023-07-20T06:04:27;10.80;;;4.40;;
5616;SDS011;2830;50.656;7.568;2023-07-20T06:06:54;6.93;;;3.80;;
5616;SDS011;2830;50.656;7.568;2023-07-20T06:09:21;7.63;;;4.43;;
5616;SDS011;2830;50.656;7.568;2023-07-20T06:11:48;10.33;;;5.10;;
5616;SDS011;2830;50.656;7.568;2023-07-20T06:14:15;6.83;;;4.13;;
5616;SDS011;2830;50.656;7.568;2023-07-20T06:16:42;8.47;;;3.90;;
5616;SDS011;2830;50.656;7.568;2023-07-20T06:19:09;8.37;;;4.93;;
5616;SDS011;2830;50.656;7.568;2023-07-20T06:21:43;13.90;;;4.33;;
5616;SDS011;2830;50.656;7.568;2023-07-20T06:24:10;9.50;;;5.00;;
5616;SDS011;2830;50.656;7.568;2023-07-20T06:26:37;16.50;;;5.50;;
5616;SDS011;2830;50.656;7.568;2023-07-20T06:29:05;9.30;;;4.63;;
5616;SDS011;2830;50.656;7.568;2023-07-20T06:31:33;11.00;;;5.30;;
5616;SDS011;2830;50.656;7.568;2023-07-20T06:34:00;10.03;;;6.30;;
5616;SDS011;2830;50.656;7.568;2023-07-20T06:36:30;8.77;;;5.63;;
5616;SDS011;2830;50.656;7.568;2023-07-20T06:38:56;11.97;;;6.40;;
5616;SDS011;2830;50.656;7.568;2023-07-20T06:41:26;10.20;;;5.93;;
5616;SDS011;2830;50.656;7.568;2023-07-20T06:43:56;15.53;;;6.90;;
5616;SDS011;2830;50.656;7.568;2023-07-20T06:46:25;13.37;;;7.17;;
5616;SDS011;2830;50.656;7.568;2023-07-20T06:48:53;11.47;;;8.13;;
5616;SDS011;2830;50.656;7.568;2023-07-20T06:51:23;15.47;;;7.87;;
5616;SDS011;2830;50.656;7.568;2023-07-20T06:53:50;11.27;;;6.87;;
5616;SDS011;2830;50.656;7.568;2023-07-20T06:56:17;11.13;;;7.50;;
5616;SDS011;2830;50.656;7.568;2023-07-20T06:58:46;13.00;;;7.20;;
5616;SDS011;2830;50.656;7.568;2023-07-20T07:01:13;11.20;;;6.90;;
5616;SDS011;2830;50.656;7.568;2023-07-20T07:03:41;10.20;;;5.60;;
5616;SDS011;2830;50.656;7.568;2023-07-20T07:06:08;11.43;;;5.87;;
5616;SDS011;2830;50.656;7.568;2023-07-20T07:08:35;10.93;;;5.43;;
5616;SDS011;2830;50.656;7.568;2023-07-20T07:11:02;8.30;;;4.83;;
5616;SDS011;2830;50.656;7.568;2023-07-20T07:13:31;8.97;;;5.20;;
5616;SDS011;2830;50.656;7.568;2023-07-20T07:15:57;11.13;;;5.13;;
5616;SDS011;2830;50.656;7.568;2023-07-20T07:18:24;8.53;;;5.30;;
5616;SDS011;2830;50.656;7.568;2023-07-20T07:20:53;9.37;;;5.33;;
5616;SDS011;2830;50.656;7.568;2023-07-20T07:23:28;10.10;;;5.33;;
5616;SDS011;2830;50.656;7.568;2023-07-20T07:25:55;10.70;;;5.17;;
5616;SDS011;2830;50.656;7.568;2023-07-20T07:28:22;12.53;;;5.90;;
5616;SDS011;2830;50.656;7.568;2023-07-20T07:30:49;14.30;;;7.00;;
5616;SDS011;2830;50.656;7.568;2023-07-20T07:33:16;7.97;;;4.77;;
5616;SDS011;2830;50.656;7.568;2023-07-20T07:35:42;9.17;;;5.23;;
5616;SDS011;2830;50.656;7.568;2023-07-20T07:38:09;11.80;;;4.83;;
5616;SDS011;2830;50.656;7.568;2023-07-20T07:40:57;10.47;;;5.17;;
5616;SDS011;2830;50.656;7.568;2023-07-20T07:43:24;11.47;;;4.90;;
5616;SDS011;2830;50.656;7.568;2023-07-20T07:45:53;11.27;;;4.43;;
5616;SDS011;2830;50.656;7.568;2023-07-20T07:48:21;6.47;;;4.30;;
5616;SDS011;2830;50.656;7.568;2023-07-20T07:50:48;7.30;;;3.40;;
5616;SDS011;2830;50.656;7.568;2023-07-20T07:53:16;8.47;;;4.30;;
5616;SDS011;2830;50.656;7.568;2023-07-20T07:55:43;6.13;;;3.80;;
5616;SDS011;2830;50.656;7.568;2023-07-20T07:58:10;8.27;;;4.37;;
5616;SDS011;2830;50.656;7.568;2023-07-20T08:00:36;10.37;;;4.90;;
5616;SDS011;2830;50.656;7.568;2023-07-20T08:03:03;10.03;;;4.40;;
5616;SDS011;2830;50.656;7.568;2023-07-20T08:05:30;7.77;;;3.90;;
5616;SDS011;2830;50.656;7.568;2023-07-20T08:07:57;8.00;;;4.57;;
5616;SDS011;2830;50.656;7.568;2023-07-20T08:10:24;11.77;;;4.50;;
5616;SDS011;2830;50.656;7.568;2023-07-20T08:12:51;10.67;;;4.13;;
5616;SDS011;2830;50.656;7.568;2023-07-20T08:15:18;5.40;;;4.17;;
5616;SDS011;2830;50.656;7.568;2023-07-20T08:17:45;9.77;;;5.30;;
5616;SDS011;2830;50.656;7.568;2023-07-20T08:20:12;7.00;;;4.13;;
5616;SDS011;2830;50.656;7.568;2023-07-20T08:23:03;6.57;;;3.90;;
5616;SDS011;2830;50.656;7.568;2023-07-20T08:25:30;10.13;;;4.23;;
5616;SDS011;2830;50.656;7.568;2023-07-20T08:27:56;9.07;;;3.50;;
5616;SDS011;2830;50.656;7.568;2023-07-20T08:30:23;5.70;;;3.80;;
5616;SDS011;2830;50.656;7.568;2023-07-20T08:32:50;6.00;;;4.00;;
5616;SDS011;2830;50.656;7.568;2023-07-20T08:35:17;8.53;;;4.10;;
5616;SDS011;2830;50.656;7.568;2023-07-20T08:37:47;10.53;;;4.00;;
5616;SDS011;2830;50.656;7.568;2023-07-20T08:40:14;5.97;;;4.63;;
5616;SDS011;2830;50.656;7.568;2023-07-20T08:42:41;10.80;;;5.00;;
5616;SDS011;2830;50.656;7.568;2023-07-20T08:45:09;13.50;;;4.63;;
5616;SDS011;2830;50.656;7.568;2023-07-20T08:47:38;7.20;;;3.77;;
5616;SDS011;2830;50.656;7.568;2023-07-20T08:50:08;6.40;;;4.60;;
5616;SDS011;2830;50.656;7.568;2023-07-20T08:52:37;7.83;;;4.57;;
5616;SDS011;2830;50.656;7.568;2023-07-20T08:55:04;12.10;;;5.33;;
5616;SDS011;2830;50.656;7.568;2023-07-20T08:57:32;15.30;;;5.07;;
5616;SDS011;2830;50.656;7.568;2023-07-20T09:00:02;7.77;;;4.40;;
5616;SDS011;2830;50.656;7.568;2023-07-20T09:02:35;8.57;;;4.37;;
5616;SDS011;2830;50.656;7.568;2023-07-20T09:05:05;10.03;;;4.53;;
5616;SDS011;2830;50.656;7.568;2023-07-20T09:07:36;8.43;;;3.97;;
5616;SDS011;2830;50.656;7.568;2023-07-20T09:10:03;7.93;;;5.10;;
5616;SDS011;2830;50.656;7.568;2023-07-20T09:12:35;5.77;;;4.33;;
5616;SDS011;2830;50.656;7.568;2023-07-20T09:15:03;7.47;;;4.10;;
5616;SDS011;2830;50.656;7.568;2023-07-20T09:17:31;4.97;;;3.43;;
5616;SDS011;2830;50.656;7.568;2023-07-20T09:19:58;9.93;;;3.93;;
5616;SDS011;2830;50.656;7.568;2023-07-20T09:22:34;8.67;;;4.73;;
5616;SDS011;2830;50.656;7.568;2023-07-20T09:25:06;7.97;;;3.70;;
5616;SDS011;2830;50.656;7.568;2023-07-20T09:27:47;5.73;;;2.50;;
5616;SDS011;2830;50.656;7.568;2023-07-20T09:30:21;8.00;;;2.83;;
5616;SDS011;2830;50.656;7.568;2023-07-20T09:33:04;6.17;;;3.40;;
5616;SDS011;2830;50.656;7.568;2023-07-20T09:35:34;4.77;;;3.60;;
5616;SDS011;2830;50.656;7.568;2023-07-20T09:39:11;4.30;;;2.70;;
5616;SDS011;2830;50.656;7.568;2023-07-20T09:41:39;7.13;;;4.20;;
5616;SDS011;2830;50.656;7.568;2023-07-20T09:44:15;4.67;;;3.47;;
5616;SDS011;2830;50.656;7.568;2023-07-20T09:46:48;6.20;;;3.40;;
5616;SDS011;2830;50.656;7.568;2023-07-20T09:49:20;5.10;;;3.43;;
5616;SDS011;2830;50.656;7.568;2023-07-20T09:52:39;7.63;;;3.90;;
5616;SDS011;2830;50.656;7.568;2023-07-20T09:55:23;5.60;;;3.63;;
5616;SDS011;2830;50.656;7.568;2023-07-20T09:58:00;7.63;;;4.20;;
5616;SDS011;2830;50.656;7.568;2023-07-20T10:00:32;4.80;;;3.73;;
5616;SDS011;2830;50.656;7.568;2023-07-20T10:03:41;5.33;;;4.00;;
5616;SDS011;2830;50.656;7.568;2023-07-20T10:06:42;5.13;;;3.60;;
5616;SDS011;2830;50.656;7.568;2023-07-20T10:09:13;6.00;;;3.70;;
5616;SDS011;2830;50.656;7.568;2023-07-20T10:11:43;6.00;;;3.23;;
5616;SDS011;2830;50.656;7.568;2023-07-20T10:14:31;3.90;;;2.80;;
5616;SDS011;2830;50.656;7.568;2023-07-20T10:17:05;6.80;;;3.87;;
5616;SDS011;2830;50.656;7.568;2023-07-20T10:19:43;5.17;;;3.67;;
5616;SDS011;2830;50.656;7.568;2023-07-20T10:22:26;5.13;;;3.10;;
5616;SDS011;2830;50.656;7.568;2023-07-20T10:24:57;4.20;;;2.80;;
5616;SDS011;2830;50.656;7.568;2023-07-20T10:27:29;4.00;;;2.70;;
5616;SDS011;2830;50.656;7.568;2023-07-20T10:29:59;6.03;;;2.33;;
5616;SDS011;2830;50.656;7.568;2023-07-20T10:32:44;9.03;;;2.77;;
5616;SDS011;2830;50.656;7.568;2023-07-20T10:35:12;4.30;;;2.30;;
5616;SDS011;2830;50.656;7.568;2023-07-20T10:37:46;4.20;;;1.97;;
5616;SDS011;2830;50.656;7.568;2023-07-20T10:43:04;5.93;;;2.30;;
5616;SDS011;2830;50.656;7.568;2023-07-20T10:45:57;6.10;;;2.60;;
5616;SDS011;2830;50.656;7.568;2023-07-20T10:48:24;3.43;;;2.20;;
5616;SDS011;2830;50.656;7.568;2023-07-20T10:53:48;3.30;;;1.93;;
5616;SDS011;2830;50.656;7.568;2023-07-20T10:56:19;4.73;;;2.30;;
5616;SDS011;2830;50.656;7.568;2023-07-20T10:58:47;5.20;;;1.90;;
5616;SDS011;2830;50.656;7.568;2023-07-20T11:01:16;9.43;;;2.67;;
5616;SDS011;2830;50.656;7.568;2023-07-20T11:03:48;5.03;;;2.27;;
5616;SDS011;2830;50.656;7.568;2023-07-20T11:08:56;6.40;;;2.43;;
5616;SDS011;2830;50.656;7.568;2023-07-20T11:11:35;5.70;;;2.90;;
5616;SDS011;2830;50.656;7.568;2023-07-20T11:14:03;5.40;;;1.93;;
5616;SDS011;2830;50.656;7.568;2023-07-20T11:19:02;2.93;;;1.70;;
5616;SDS011;2830;50.656;7.568;2023-07-20T11:21:36;5.50;;;1.87;;
5616;SDS011;2830;50.656;7.568;2023-07-20T11:24:17;10.03;;;2.93;;
5616;SDS011;2830;50.656;7.568;2023-07-20T11:26:44;4.20;;;2.70;;
5616;SDS011;2830;50.656;7.568;2023-07-20T11:29:13;4.07;;;2.07;;
5616;SDS011;2830;50.656;7.568;2023-07-20T11:31:56;4.17;;;2.10;;
5616;SDS011;2830;50.656;7.568;2023-07-20T11:34:24;5.13;;;1.63;;
5616;SDS011;2830;50.656;7.568;2023-07-20T11:36:51;5.60;;;2.27;;
5616;SDS011;2830;50.656;7.568;2023-07-20T11:39:21;4.73;;;2.80;;
5616;SDS011;2830;50.656;7.568;2023-07-20T11:41:52;3.67;;;1.60;;
5616;SDS011;2830;50.656;7.568;2023-07-20T11:44:21;4.60;;;1.73;;
5616;SDS011;2830;50.656;7.568;2023-07-20T11:46:59;4.70;;;1.70;;
5616;SDS011;2830;50.656;7.568;2023-07-20T11:49:45;3.37;;;1.70;;
5616;SDS011;2830;50.656;7.568;2023-07-20T11:52:17;3.93;;;1.97;;
5616;SDS011;2830;50.656;7.568;2023-07-20T11:54:44;5.20;;;2.20;;
5616;SDS011;2830;50.656;7.568;2023-07-20T11:57:18;4.80;;;1.70;;
5616;SDS011;2830;50.656;7.568;2023-07-20T12:00:00;3.80;;;1.70;;
5616;SDS011;2830;50.656;7.568;2023-07-20T12:02:32;3.37;;;1.80;;
5616;SDS011;2830;50.656;7.568;2023-07-20T12:04:59;8.23;;;2.00;;
5616;SDS011;2830;50.656;7.568;2023-07-20T12:07:27;4.13;;;1.50;;
5616;SDS011;2830;50.656;7.568;2023-07-20T12:12:37;2.97;;;1.63;;
5616;SDS011;2830;50.656;7.568;2023-07-20T12:15:19;3.50;;;1.70;;
5616;SDS011;2830;50.656;7.568;2023-07-20T12:18:01;5.90;;;1.90;;
5616;SDS011;2830;50.656;7.568;2023-07-20T12:20:30;6.37;;;2.03;;
5616;SDS011;2830;50.656;7.568;2023-07-20T12:23:02;3.90;;;2.00;;
5616;SDS011;2830;50.656;7.568;2023-07-20T12:25:41;3.87;;;1.53;;
5616;SDS011;2830;50.656;7.568;2023-07-20T12:28:10;7.73;;;1.97;;
5616;SDS011;2830;50.656;7.568;2023-07-20T12:30:38;5.20;;;1.70;;
5616;SDS011;2830;50.656;7.568;2023-07-20T12:33:05;3.30;;;1.50;;
5616;SDS011;2830;50.656;7.568;2023-07-20T12:35:33;5.40;;;1.90;;
5616;SDS011;2830;50.656;7.568;2023-07-20T12:38:00;3.20;;;1.47;;
5616;SDS011;2830;50.656;7.568;2023-07-20T12:40:27;6.70;;;1.40;;
5616;SDS011;2830;50.656;7.568;2023-07-20T12:42:54;10.97;;;2.00;;
5616;SDS011;2830;50.656;7.568;2023-07-20T12:45:21;3.50;;;1.60;;
5616;SDS011;2830;50.656;7.568;2023-07-20T12:47:48;7.70;;;1.50;;
5616;SDS011;2830;50.656;7.568;2023-07-20T12:50:15;7.17;;;1.50;;
5616;SDS011;2830;50.656;7.568;2023-07-20T12:52:42;3.60;;;1.47;;
5616;SDS011;2830;50.656;7.568;2023-07-20T12:55:09;3.60;;;2.00;;
5616;SDS011;2830;50.656;7.568;2023-07-20T12:57:36;4.87;;;1.93;;
5616;SDS011;2830;50.656;7.568;2023-07-20T13:00:04;3.70;;;2.37;;
5616;SDS011;2830;50.656;7.568;2023-07-20T13:02:34;4.40;;;2.37;;
5616;SDS011;2830;50.656;7.568;2023-07-20T13:05:02;6.33;;;2.60;;
5616;SDS011;2830;50.656;7.568;2023-07-20T13:07:36;4.43;;;1.97;;
5616;SDS011;2830;50.656;7.568;2023-07-20T13:10:07;5.10;;;2.40;;
5616;SDS011;2830;50.656;7.568;2023-07-20T13:12:35;6.07;;;2.40;;
5616;SDS011;2830;50.656;7.568;2023-07-20T13:15:03;2.93;;;1.70;;
5616;SDS011;2830;50.656;7.568;2023-07-20T13:17:34;5.70;;;2.83;;
5616;SDS011;2830;50.656;7.568;2023-07-20T13:20:05;10.50;;;2.57;;
5616;SDS011;2830;50.656;7.568;2023-07-20T13:22:38;4.20;;;2.00;;
5616;SDS011;2830;50.656;7.568;2023-07-20T13:25:06;4.87;;;2.40;;
5616;SDS011;2830;50.656;7.568;2023-07-20T13:27:34;3.97;;;1.70;;
5616;SDS011;2830;50.656;7.568;2023-07-20T13:30:03;3.90;;;1.87;;
5616;SDS011;2830;50.656;7.568;2023-07-20T13:32:36;3.20;;;1.70;;
5616;SDS011;2830;50.656;7.568;2023-07-20T13:35:06;5.40;;;1.80;;
5616;SDS011;2830;50.656;7.568;2023-07-20T13:37:33;4.13;;;2.07;;
5616;SDS011;2830;50.656;7.568;2023-07-20T13:40:00;4.90;;;1.93;;
5616;SDS011;2830;50.656;7.568;2023-07-20T13:42:27;4.53;;;2.07;;
5616;SDS011;2830;50.656;7.568;2023-07-20T13:44:54;3.03;;;1.57;;
5616;SDS011;2830;50.656;7.568;2023-07-20T13:47:22;4.87;;;2.23;;
5616;SDS011;2830;50.656;7.568;2023-07-20T13:49:48;3.80;;;1.93;;
5616;SDS011;2830;50.656;7.568;2023-07-20T13:52:29;3.80;;;1.40;;
5616;SDS011;2830;50.656;7.568;2023-07-20T13:54:59;2.97;;;1.70;;
5616;SDS011;2830;50.656;7.568;2023-07-20T13:57:26;3.80;;;1.77;;
5616;SDS011;2830;50.656;7.568;2023-07-20T13:59:53;7.20;;;2.20;;
5616;SDS011;2830;50.656;7.568;2023-07-20T14:02:20;10.37;;;1.90;;
5616;SDS011;2830;50.656;7.568;2023-07-20T14:04:49;4.27;;;2.70;;
5616;SDS011;2830;50.656;7.568;2023-07-20T14:07:36;4.23;;;1.77;;
5616;SDS011;2830;50.656;7.568;2023-07-20T14:10:03;6.30;;;2.10;;
5616;SDS011;2830;50.656;7.568;2023-07-20T14:12:33;4.87;;;1.60;;
5616;SDS011;2830;50.656;7.568;2023-07-20T14:15:00;7.33;;;2.87;;
5616;SDS011;2830;50.656;7.568;2023-07-20T14:17:28;7.93;;;3.87;;
5616;SDS011;2830;50.656;7.568;2023-07-20T14:19:55;4.10;;;1.70;;
5616;SDS011;2830;50.656;7.568;2023-07-20T14:22:22;4.50;;;2.00;;
5616;SDS011;2830;50.656;7.568;2023-07-20T14:24:49;4.40;;;1.50;;
5616;SDS011;2830;50.656;7.568;2023-07-20T14:27:16;5.40;;;1.83;;
5616;SDS011;2830;50.656;7.568;2023-07-20T14:29:42;7.70;;;2.13;;
5616;SDS011;2830;50.656;7.568;2023-07-20T14:32:09;4.30;;;2.20;;
5616;SDS011;2830;50.656;7.568;2023-07-20T14:34:36;3.57;;;1.30;;
5616;SDS011;2830;50.656;7.568;2023-07-20T14:37:05;2.63;;;1.33;;
5616;SDS011;2830;50.656;7.568;2023-07-20T14:39:32;6.60;;;2.37;;
5616;SDS011;2830;50.656;7.568;2023-07-20T14:41:59;4.33;;;1.77;;
5616;SDS011;2830;50.656;7.568;2023-07-20T14:44:25;3.93;;;1.67;;
5616;SDS011;2830;50.656;7.568;2023-07-20T14:46:52;3.37;;;2.00;;
5616;SDS011;2830;50.656;7.568;2023-07-20T14:49:36;3.53;;;1.53;;
5616;SDS011;2830;50.656;7.568;2023-07-20T14:52:03;5.53;;;2.27;;
5616;SDS011;2830;50.656;7.568;2023-07-20T14:54:41;3.10;;;1.53;;
5616;SDS011;2830;50.656;7.568;2023-07-20T14:57:07;3.73;;;1.77;;
5616;SDS011;2830;50.656;7.568;2023-07-20T14:59:40;4.80;;;1.50;;
5616;SDS011;2830;50.656;7.568;2023-07-20T15:02:10;4.00;;;1.93;;
5616;SDS011;2830;50.656;7.568;2023-07-20T15:04:37;6.30;;;2.13;;
5616;SDS011;2830;50.656;7.568;2023-07-20T15:07:11;5.70;;;1.70;;
5616;SDS011;2830;50.656;7.568;2023-07-20T15:09:38;4.27;;;1.50;;
5616;SDS011;2830;50.656;7.568;2023-07-20T15:12:05;3.70;;;1.67;;
5616;SDS011;2830;50.656;7.568;2023-07-20T15:14:33;3.13;;;1.70;;
5616;SDS011;2830;50.656;7.568;2023-07-20T15:16:59;9.43;;;1.60;;
5616;SDS011;2830;50.656;7.568;2023-07-20T15:19:26;2.40;;;1.20;;
5616;SDS011;2830;50.656;7.568;2023-07-20T15:21:54;2.93;;;1.30;;
5616;SDS011;2830;50.656;7.568;2023-07-20T15:24:21;3.37;;;1.60;;
5616;SDS011;2830;50.656;7.568;2023-07-20T15:26:47;6.37;;;1.53;;
5616;SDS011;2830;50.656;7.568;2023-07-20T15:29:14;3.00;;;1.33;;
5616;SDS011;2830;50.656;7.568;2023-07-20T15:31:44;7.93;;;1.57;;
5616;SDS011;2830;50.656;7.568;2023-07-20T15:34:14;3.73;;;1.20;;
5616;SDS011;2830;50.656;7.568;2023-07-20T15:36:41;3.27;;;1.20;;
5616;SDS011;2830;50.656;7.568;2023-07-20T15:39:08;3.27;;;1.60;;
5616;SDS011;2830;50.656;7.568;2023-07-20T15:41:35;3.73;;;1.50;;
5616;SDS011;2830;50.656;7.568;2023-07-20T15:44:02;6.47;;;3.10;;
5616;SDS011;2830;50.656;7.568;2023-07-20T15:49:10;6.30;;;1.77;;
5616;SDS011;2830;50.656;7.568;2023-07-20T15:51:37;5.63;;;1.43;;